createdAt,value
2022-10-03T00:02:37.039Z,97142.09
2022-10-03T00:05:12.411Z,97142.91
2022-10-03T00:08:26.226Z,97142.78
2022-10-03T00:11:17.527Z,97152.25
2022-10-03T00:14:04.744Z,97153.03
2022-10-03T00:17:06.183Z,97155.25
2022-10-03T00:20:27.618Z,97158.50
2022-10-03T00:23:20.563Z,97157.31
2022-10-03T00:26:01.122Z,97166.16
2022-10-03T00:29:21.566Z,97167.97
2022-10-03T00:32:20.271Z,97174.41
2022-10-03T00:34:51.240Z,97173.88
2022-10-03T00:37:52.985Z,97175.94
2022-10-03T00:40:45.252Z,97179.97
2022-10-03T00:43:58.789Z,97179.19
2022-10-03T00:47:10.699Z,97186.28
2022-10-03T00:50:07.067Z,97193.19
2022-10-03T00:53:00.597Z,97185.03
2022-10-03T00:55:45.389Z,97182.75
2022-10-03T00:58:37.440Z,97188.00
2022-10-03T01:01:28.113Z,97187.50
2022-10-03T01:04:26.793Z,97197.09
2022-10-03T01:07:42.627Z,97183.94
2022-10-03T01:10:37.247Z,97181.75
2022-10-03T01:13:31.386Z,97192.19
2022-10-03T01:16:12.475Z,97195.31
2022-10-03T01:19:08.284Z,97189.31
2022-10-03T01:22:14.852Z,97183.78
2022-10-03T01:25:30.797Z,97197.19
2022-10-03T01:28:26.278Z,97198.94
2022-10-03T01:31:00.088Z,97197.38
2022-10-03T01:34:11.597Z,97197.28
2022-10-03T01:37:12.070Z,97201.31
2022-10-03T01:40:12.237Z,97208.56
2022-10-03T01:42:50.917Z,97200.19
2022-10-03T01:45:30.850Z,97209.28
2022-10-03T01:48:06.726Z,97209.63
2022-10-03T01:50:54.202Z,97215.06
2022-10-03T01:54:03.260Z,97223.63
2022-10-03T01:56:41.457Z,97224.53
2022-10-03T01:59:17.712Z,97226.19
2022-10-03T02:02:00.508Z,97226.78
2022-10-03T02:05:08.659Z,97236.34
2022-10-03T02:07:57.201Z,97242.31
2022-10-03T02:10:40.289Z,97237.41
2022-10-03T02:13:28.919Z,97243.84
2022-10-03T02:16:20.660Z,97237.91
2022-10-03T02:18:59.205Z,97241.41
2022-10-03T02:21:32.652Z,97240.34
2022-10-03T02:24:41.629Z,97244.53
2022-10-03T02:27:36.098Z,97235.97
2022-10-03T02:31:02.446Z,97240.34
2022-10-03T02:34:01.740Z,97238.19
2022-10-03T02:36:31.983Z,97243.81
2022-10-03T02:39:22.941Z,97246.91
2022-10-03T02:42:26.727Z,97238.91
2022-10-03T02:45:19.352Z,97241.47
2022-10-03T02:48:32.161Z,97245.22
2022-10-03T02:51:10.128Z,97234.97
2022-10-03T02:54:24.260Z,97246.13
2022-10-03T02:57:39.546Z,97253.78
2022-10-03T03:00:19.551Z,97254.78
2022-10-03T03:03:04.841Z,97253.25
2022-10-03T03:05:58.120Z,97257.91
2022-10-03T03:08:36.870Z,97262.69
2022-10-03T03:11:35.329Z,97252.63
2022-10-03T03:15:02.432Z,97257.53
2022-10-03T03:17:50.208Z,97268.00
2022-10-03T03:20:47.080Z,97269.97
2022-10-03T03:23:46.846Z,97268.00
2022-10-03T03:27:00.362Z,97271.97
2022-10-03T03:29:43.638Z,97276.53
2022-10-03T03:32:33.473Z,97280.09
2022-10-03T03:35:27.474Z,97278.53
2022-10-03T03:38:21.127Z,97277.81
2022-10-03T03:41:28.074Z,97277.81
2022-10-03T03:44:18.843Z,97287.56
2022-10-03T03:47:08.475Z,97290.09
2022-10-03T03:50:29.474Z,97301.66
2022-10-03T03:53:29.753Z,97292.00
2022-10-03T03:56:37.750Z,97295.81
2022-10-03T03:59:41.653Z,97302.56
2022-10-03T04:02:53.068Z,97308.31
2022-10-03T04:05:51.389Z,97305.03
2022-10-03T04:08:34.780Z,97306.50
2022-10-03T04:11:19.558Z,97320.13
2022-10-03T04:14:29.425Z,97315.47
2022-10-03T04:17:31.165Z,97309.50
2022-10-03T04:20:39.740Z,97308.81
2022-10-03T04:23:40.063Z,97312.06
2022-10-03T04:26:21.630Z,97314.66
2022-10-03T04:29:22.980Z,97313.94
2022-10-03T04:32:01.538Z,97306.00
2022-10-03T04:34:56.278Z,97305.00
2022-10-03T04:37:48.040Z,97303.34
2022-10-03T04:41:02.884Z,97302.69
2022-10-03T04:43:49.154Z,97305.81
2022-10-03T04:46:53.152Z,97308.44
2022-10-03T04:49:39.288Z,97300.72
2022-10-03T04:52:33.227Z,97309.88
2022-10-03T04:55:25.534Z,97300.84
2022-10-03T04:58:40.762Z,97309.81
2022-10-03T05:01:34.444Z,97304.25
2022-10-03T05:04:34.781Z,97309.50
2022-10-03T05:07:25.804Z,97314.06
2022-10-03T05:10:09.210Z,97316.47
2022-10-03T05:13:11.211Z,97312.44
2022-10-03T05:16:01.548Z,97313.72
2022-10-03T05:18:41.582Z,97312.66
2022-10-03T05:21:20.255Z,97320.84
2022-10-03T05:24:22.002Z,97318.22
2022-10-03T05:27:35.658Z,97323.94
2022-10-03T05:30:44.768Z,97328.97
2022-10-03T05:33:29.861Z,97329.63
2022-10-03T05:36:28.753Z,97333.25
2022-10-03T05:39:26.394Z,97338.34
2022-10-03T05:42:24.081Z,97335.66
2022-10-03T05:45:15.378Z,97335.50
2022-10-03T05:47:58.672Z,97332.38
2022-10-03T05:50:57.645Z,97338.06
2022-10-03T05:54:01.589Z,97336.00
2022-10-03T05:56:45.556Z,97341.59
2022-10-03T05:59:30.962Z,97346.84
2022-10-03T06:02:44.864Z,97350.41
2022-10-03T06:05:23.655Z,97357.38
2022-10-03T06:08:11.989Z,97363.13
2022-10-03T06:10:56.686Z,97362.06
2022-10-03T06:13:47.021Z,97372.00
2022-10-03T06:16:23.077Z,97378.28
2022-10-03T06:19:23.127Z,97370.47
2022-10-03T06:22:30.442Z,97376.94
2022-10-03T06:25:21.901Z,97377.50
2022-10-03T06:27:59.622Z,97382.38
2022-10-03T06:30:43.653Z,97389.66
2022-10-03T06:34:27.400Z,97390.38
2022-10-03T06:37:43.501Z,97393.09
2022-10-03T06:40:27.345Z,97394.66
2022-10-03T06:43:45.557Z,97402.44
2022-10-03T06:46:52.813Z,97402.81
2022-10-03T06:49:28.236Z,97409.06
2022-10-03T06:52:16.359Z,97401.34
2022-10-03T06:55:07.178Z,97405.44
2022-10-03T06:58:01.502Z,97404.34
2022-10-03T07:01:13.499Z,97402.97
2022-10-03T07:04:24.170Z,97407.38
2022-10-03T07:07:15.709Z,97404.22
2022-10-03T07:10:38.825Z,97413.66
2022-10-03T07:13:46.341Z,97412.09
2022-10-03T07:16:41.371Z,97409.63
2022-10-03T07:19:31.421Z,97411.47
2022-10-03T07:22:35.725Z,97416.69
2022-10-03T07:25:30.344Z,97419.72
2022-10-03T07:28:18.250Z,97419.31
2022-10-03T07:31:28.168Z,97420.25
2022-10-03T07:34:31.987Z,97419.25
2022-10-03T07:37:44.890Z,97427.19
2022-10-03T07:40:40.557Z,97419.91
2022-10-03T07:43:33.573Z,97423.31
2022-10-03T07:46:52.937Z,97424.59
2022-10-03T07:50:10.157Z,97426.09
2022-10-03T07:53:04.794Z,97423.66
2022-10-03T07:56:31.042Z,97421.78
2022-10-03T07:59:44.477Z,97432.69
2022-10-03T08:02:53.291Z,97428.78
2022-10-03T08:05:31.373Z,97427.31
2022-10-03T08:08:42.317Z,97431.66
2022-10-03T08:11:32.641Z,97434.00
2022-10-03T08:14:14.369Z,97433.38
2022-10-03T08:16:56.137Z,97436.50
2022-10-03T08:19:41.404Z,97445.28
2022-10-03T08:22:58.680Z,97444.25
2022-10-03T08:26:10.491Z,97451.84
2022-10-03T08:29:15.233Z,97456.72
2022-10-03T08:32:15.597Z,97454.53
2022-10-03T08:35:16.554Z,97449.66
2022-10-03T08:38:20.129Z,97453.50
2022-10-03T08:41:06.319Z,97457.78
2022-10-03T08:44:14.020Z,97464.56
2022-10-03T08:47:11.311Z,97461.81
2022-10-03T08:50:38.106Z,97473.53
2022-10-03T08:53:50.841Z,97478.69
2022-10-03T08:56:46.940Z,97473.59
2022-10-03T09:00:01.597Z,97476.53
2022-10-03T09:03:33.120Z,97469.66
2022-10-03T09:07:15.445Z,97465.38
2022-10-03T09:09:53.028Z,97466.94
2022-10-03T09:13:05.362Z,97468.16
2022-10-03T09:15:59.387Z,97474.06
2022-10-03T09:18:57.869Z,97466.75
2022-10-03T09:21:37.302Z,97472.81
2022-10-03T09:25:05.103Z,97457.56
2022-10-03T09:27:47.098Z,97463.50
2022-10-03T09:30:24.584Z,97470.41
2022-10-03T09:33:39.128Z,97463.91
2022-10-03T09:36:37.925Z,97468.22
2022-10-03T09:39:54.356Z,97464.34
2022-10-03T09:43:01.731Z,97471.25
2022-10-03T09:46:17.859Z,97470.03
2022-10-03T09:49:29.900Z,97459.44
2022-10-03T09:52:22.815Z,97460.47
2022-10-03T09:55:20.809Z,97460.66
2022-10-03T09:58:25.144Z,97456.00
2022-10-03T10:01:03.967Z,97460.28
2022-10-03T10:03:48.948Z,97455.75
2022-10-03T10:07:15.998Z,97456.06
2022-10-03T10:10:20.054Z,97456.00
2022-10-03T10:13:26.139Z,97452.28
2022-10-03T10:16:20.741Z,97450.69
2022-10-03T10:19:31.421Z,97448.44
2022-10-03T10:22:26.896Z,97445.38
2022-10-03T10:25:09.242Z,97453.25
2022-10-03T10:28:17.591Z,97448.22
2022-10-03T10:31:19.334Z,97444.47
2022-10-03T10:34:03.587Z,97448.59
2022-10-03T10:37:06.911Z,97442.81
2022-10-03T10:39:57.117Z,97433.88
2022-10-03T10:43:18.924Z,97445.94
2022-10-03T10:46:16.054Z,97443.84
2022-10-03T10:50:03.914Z,97437.69
2022-10-03T10:53:09.145Z,97440.47
2022-10-03T10:56:06.179Z,97439.78
2022-10-03T10:59:01.240Z,97448.09
2022-10-03T11:02:12.966Z,97441.66
2022-10-03T11:04:58.285Z,97445.31
2022-10-03T11:08:15.410Z,97442.47
2022-10-03T11:11:12.884Z,97444.53
2022-10-03T11:14:11.912Z,97446.53
2022-10-03T11:16:41.775Z,97440.81
2022-10-03T11:19:42.243Z,97449.44
2022-10-03T11:22:39.754Z,97435.50
2022-10-03T11:26:03.601Z,97447.72
2022-10-03T11:29:10.046Z,97446.66
2022-10-03T11:32:13.479Z,97446.19
2022-10-03T11:35:07.456Z,97446.44
2022-10-03T11:37:42.752Z,97448.19
2022-10-03T11:40:36.437Z,97454.56
2022-10-03T11:43:35.524Z,97446.44
2022-10-03T11:46:26.871Z,97443.97
2022-10-03T11:49:17.202Z,97447.25
2022-10-03T11:51:56.892Z,97431.13
2022-10-03T11:54:32.168Z,97434.25
2022-10-03T11:57:13.647Z,97428.00
2022-10-03T12:00:06.264Z,97437.06
2022-10-03T12:03:19.582Z,97417.16
2022-10-03T12:06:56.271Z,97422.97
2022-10-03T12:09:56.068Z,97423.13
2022-10-03T12:12:43.314Z,97423.25
2022-10-03T12:15:27.891Z,97417.53
2022-10-03T12:18:34.117Z,97423.19
2022-10-03T12:21:11.166Z,97421.91
2022-10-03T12:24:18.339Z,97414.47
2022-10-03T12:27:07.338Z,97417.22
2022-10-03T12:29:40.462Z,97400.75
2022-10-03T12:32:34.085Z,97403.41
2022-10-03T12:35:29.635Z,97392.13
2022-10-03T12:38:15.964Z,97382.66
2022-10-03T12:41:01.844Z,97388.75
2022-10-03T12:44:05.198Z,97372.88
2022-10-03T12:47:05.891Z,97371.00
2022-10-03T12:49:53.308Z,97377.16
2022-10-03T12:52:32.472Z,97379.22
2022-10-03T12:55:30.569Z,97364.69
2022-10-03T12:58:23.279Z,97369.22
2022-10-03T13:01:06.008Z,97372.94
2022-10-03T13:03:53.286Z,97369.19
2022-10-03T13:07:02.920Z,97387.97
2022-10-03T13:09:52.208Z,97376.09
2022-10-03T13:12:40.836Z,97376.50
2022-10-03T13:15:34.715Z,97375.47
2022-10-03T13:18:29.362Z,97374.03
2022-10-03T13:21:41.129Z,97371.56
2022-10-03T13:24:25.433Z,97366.09
2022-10-03T13:27:22.085Z,97360.66
2022-10-03T13:30:32.522Z,97358.00
2022-10-03T13:33:16.809Z,97362.44
2022-10-03T13:36:09.741Z,97354.03
2022-10-03T13:38:55.141Z,97350.63
2022-10-03T13:42:23.375Z,97351.19
2022-10-03T13:44:55.529Z,97344.94
2022-10-03T13:47:43.443Z,97338.41
2022-10-03T13:50:36.337Z,97334.59
2022-10-03T13:53:12.382Z,97333.69
2022-10-03T13:55:58.436Z,97329.06
2022-10-03T13:59:09.604Z,97335.09
2022-10-03T14:02:09.039Z,97336.91
2022-10-03T14:04:56.541Z,97329.78
2022-10-03T14:07:45.477Z,97326.28
2022-10-03T14:10:48.958Z,97328.75
2022-10-03T14:13:31.285Z,97333.75
2022-10-03T14:16:22.110Z,97329.97
2022-10-03T14:19:14.954Z,97335.19
2022-10-03T14:22:33.066Z,97327.63
2022-10-03T14:25:08.765Z,97320.28
2022-10-03T14:27:51.270Z,97317.78
2022-10-03T14:30:23.048Z,97328.50
2022-10-03T14:33:18.510Z,97330.34
2022-10-03T14:36:06.671Z,97323.19
2022-10-03T14:39:03.356Z,97320.84
2022-10-03T14:41:33.056Z,97316.75
2022-10-03T14:44:01.350Z,97322.28
2022-10-03T14:46:34.948Z,97322.13
2022-10-03T14:49:10.378Z,97320.59
2022-10-03T14:52:02.307Z,97323.13
2022-10-03T14:54:31.249Z,97326.84
2022-10-03T14:56:59.966Z,97321.53
2022-10-03T14:59:37.099Z,97316.94
2022-10-03T15:02:33.781Z,97326.44
2022-10-03T15:05:16.436Z,97324.41
2022-10-03T15:07:47.164Z,97310.91
2022-10-03T15:10:22.760Z,97307.56
2022-10-03T15:13:02.545Z,97318.59
2022-10-03T15:15:38.496Z,97322.28
2022-10-03T15:18:07.820Z,97312.84
2022-10-03T15:20:38.116Z,97318.56
2022-10-03T15:23:41.112Z,97325.53
2022-10-03T15:26:19.825Z,97322.47
2022-10-03T15:28:53.552Z,97320.91
2022-10-03T15:31:45.684Z,97320.50
2022-10-03T15:34:25.878Z,97316.34
2022-10-03T15:37:01.594Z,97307.53
2022-10-03T15:39:35.295Z,97316.34
2022-10-03T15:42:25.494Z,97310.34
2022-10-03T15:45:02.079Z,97312.00
2022-10-03T15:47:33.098Z,97317.66
2022-10-03T15:50:14.757Z,97317.13
2022-10-03T15:52:52.310Z,97310.25
2022-10-03T15:55:26.882Z,97319.50
2022-10-03T15:58:02.117Z,97312.41
2022-10-03T16:00:31.999Z,97326.13
2022-10-03T16:03:16.272Z,97314.97
2022-10-03T16:06:08.544Z,97315.00
2022-10-03T16:09:09.699Z,97314.59
2022-10-03T16:12:10.749Z,97311.75
2022-10-03T16:14:47.575Z,97310.56
2022-10-03T16:17:28.871Z,97312.59
2022-10-03T16:20:05.576Z,97314.22
2022-10-03T16:22:43.518Z,97307.50
2022-10-03T16:25:28.518Z,97305.25
2022-10-03T16:28:02.080Z,97306.03
2022-10-03T16:30:42.480Z,97319.41
2022-10-03T16:33:41.933Z,97314.47
2022-10-03T16:36:10.592Z,97321.72
2022-10-03T16:38:43.260Z,97317.56
2022-10-03T16:41:32.045Z,97316.66
2022-10-03T16:44:09.976Z,97313.75
2022-10-03T16:46:40.485Z,97317.31
2022-10-03T16:49:49.946Z,97320.91
2022-10-03T16:52:21.915Z,97321.41
2022-10-03T16:54:57.786Z,97329.50
2022-10-03T16:57:33.962Z,97326.47
2022-10-03T17:00:08.175Z,97324.69
2022-10-03T17:02:37.579Z,97320.16
2022-10-03T17:05:09.541Z,97319.81
2022-10-03T17:07:48.042Z,97315.53
2022-10-03T17:10:38.033Z,97321.50
2022-10-03T17:13:21.289Z,97321.22
2022-10-03T17:16:01.724Z,97319.09
2022-10-03T17:18:40.953Z,97323.03
2022-10-03T17:21:23.646Z,97322.50
2022-10-03T17:24:15.812Z,97321.94
2022-10-03T17:26:46.552Z,97331.13
2022-10-03T17:29:32.303Z,97333.41
2022-10-03T17:32:29.921Z,97324.25
2022-10-03T17:35:43.388Z,97318.44
2022-10-03T17:38:51.101Z,97321.59
2022-10-03T17:41:35.477Z,97324.19
2022-10-03T17:44:52.368Z,97328.59
2022-10-03T17:47:44.296Z,97333.47
2022-10-03T17:50:23.039Z,97327.16
2022-10-03T17:52:52.795Z,97333.31
2022-10-03T17:55:37.971Z,97329.38
2022-10-03T17:58:17.099Z,97330.56
2022-10-03T18:00:46.841Z,97330.88
2022-10-03T18:03:58.205Z,97326.19
2022-10-03T18:06:34.829Z,97329.69
2022-10-03T18:09:22.729Z,97330.91
2022-10-03T18:11:51.185Z,97325.53
2022-10-03T18:14:38.784Z,97326.50
2022-10-03T18:17:19.404Z,97334.09
2022-10-03T18:20:06.561Z,97331.47
2022-10-03T18:22:44.180Z,97329.19
2022-10-03T18:26:08.345Z,97338.09
2022-10-03T18:29:14.542Z,97326.28
2022-10-03T18:31:47.069Z,97326.75
2022-10-03T18:34:42.856Z,97331.53
2022-10-03T18:37:27.719Z,97329.25
2022-10-03T18:39:57.181Z,97328.31
2022-10-03T18:42:29.684Z,97323.56
2022-10-03T18:45:00.228Z,97331.09
2022-10-03T18:47:36.357Z,97331.09
2022-10-03T18:50:26.438Z,97333.22
2022-10-03T18:53:26.907Z,97331.94
2022-10-03T18:56:13.077Z,97329.63
2022-10-03T18:58:46.250Z,97327.34
2022-10-03T19:01:25.020Z,97324.53
2022-10-03T19:04:05.234Z,97327.34
2022-10-03T19:06:45.260Z,97319.44
2022-10-03T19:09:33.802Z,97317.13
2022-10-03T19:12:18.820Z,97319.75
2022-10-03T19:15:19.012Z,97321.72
2022-10-03T19:18:09.336Z,97316.25
2022-10-03T19:20:44.998Z,97310.84
2022-10-03T19:23:29.839Z,97311.22
2022-10-03T19:26:02.885Z,97314.47
2022-10-03T19:29:04.923Z,97319.09
2022-10-03T19:31:50.908Z,97322.03
2022-10-03T19:34:41.087Z,97319.44
2022-10-03T19:37:25.692Z,97314.56
2022-10-03T19:39:52.848Z,97325.41
2022-10-03T19:42:31.403Z,97333.16
2022-10-03T19:44:59.618Z,97338.59
2022-10-03T19:47:38.144Z,97345.66
2022-10-03T19:50:19.146Z,97346.47
2022-10-03T19:52:46.438Z,97339.22
2022-10-03T19:55:22.122Z,97339.56
2022-10-03T19:57:59.196Z,97338.91
2022-10-03T20:00:38.013Z,97329.38
2022-10-03T20:03:17.270Z,97337.09
2022-10-03T20:06:01.471Z,97338.56
2022-10-03T20:09:06.297Z,97336.94
2022-10-03T20:11:57.015Z,97340.16
2022-10-03T20:14:29.804Z,97343.09
2022-10-03T20:17:10.944Z,97339.47
2022-10-03T20:19:56.530Z,97344.06
2022-10-03T20:22:33.902Z,97331.94
2022-10-03T20:25:01.872Z,97336.69
2022-10-03T20:27:44.984Z,97334.50
2022-10-03T20:30:39.795Z,97337.47
2022-10-03T20:33:08.502Z,97330.56
2022-10-03T20:36:06.530Z,97328.63
2022-10-03T20:39:19.071Z,97324.84
2022-10-03T20:42:04.677Z,97336.47
2022-10-03T20:45:03.907Z,97322.69
2022-10-03T20:47:33.691Z,97321.56
2022-10-03T20:50:30.324Z,97323.69
2022-10-03T20:53:05.007Z,97322.19
2022-10-03T20:55:39.374Z,97328.06
2022-10-03T20:58:23.229Z,97332.78
2022-10-03T21:00:59.546Z,97316.59
2022-10-03T21:03:41.022Z,97318.22
2022-10-03T21:06:31.012Z,97327.06
2022-10-03T21:09:01.246Z,97316.72
2022-10-03T21:11:31.299Z,97318.28
2022-10-03T21:14:06.361Z,97315.00
2022-10-03T21:16:38.810Z,97318.22
2022-10-03T21:19:27.526Z,97314.59
2022-10-03T21:21:58.638Z,97314.09
2022-10-03T21:24:41.781Z,97311.63
2022-10-03T21:27:15.543Z,97312.13
2022-10-03T21:29:57.823Z,97309.69
2022-10-03T21:32:56.893Z,97313.28
2022-10-03T21:35:51.474Z,97312.94
2022-10-03T21:38:32.042Z,97309.97
2022-10-03T21:41:34.671Z,97310.59
2022-10-03T21:44:15.141Z,97305.53
2022-10-03T21:47:06.253Z,97306.34
2022-10-03T21:50:15.367Z,97312.56
2022-10-03T21:53:15.364Z,97310.94
2022-10-03T21:55:53.039Z,97303.09
2022-10-03T21:59:06.629Z,97301.09
2022-10-03T22:01:48.275Z,97291.84
2022-10-03T22:04:43.061Z,97291.44
2022-10-03T22:07:16.263Z,97275.34
2022-10-03T22:09:55.601Z,97276.16
2022-10-03T22:12:27.020Z,97273.38
2022-10-03T22:15:17.057Z,97255.41
2022-10-03T22:18:01.930Z,97261.81
2022-10-03T22:20:31.517Z,97259.31
2022-10-03T22:23:16.327Z,97256.38
2022-10-03T22:26:14.025Z,97252.25
2022-10-03T22:29:01.831Z,97258.09
2022-10-03T22:31:56.829Z,97259.84
2022-10-03T22:34:56.044Z,97254.09
2022-10-03T22:37:23.297Z,97252.00
2022-10-03T22:39:50.916Z,97246.09
2022-10-03T22:42:18.933Z,97244.16
2022-10-03T22:44:50.445Z,97245.13
2022-10-03T22:47:26.238Z,97245.13
2022-10-03T22:50:00.290Z,97234.97
2022-10-03T22:52:32.105Z,97244.16
2022-10-03T22:55:04.072Z,97242.50
2022-10-03T22:57:35.607Z,97241.56
2022-10-03T23:00:11.311Z,97243.56
2022-10-03T23:03:04.995Z,97256.63
2022-10-03T23:06:05.171Z,97256.75
2022-10-03T23:08:55.287Z,97252.66
2022-10-03T23:11:31.254Z,97250.03
2022-10-03T23:14:05.046Z,97250.00
2022-10-03T23:16:51.421Z,97254.16
2022-10-03T23:19:27.057Z,97250.88
2022-10-03T23:21:57.221Z,97247.94
2022-10-03T23:24:58.825Z,97245.50
2022-10-03T23:28:11.354Z,97239.09
2022-10-03T23:30:50.493Z,97236.06
2022-10-03T23:33:38.347Z,97234.75
2022-10-03T23:36:24.698Z,97237.81
2022-10-03T23:38:54.555Z,97241.69
2022-10-03T23:41:43.518Z,97252.84
2022-10-03T23:44:50.568Z,97249.31
2022-10-03T23:47:21.165Z,97246.25
2022-10-03T23:49:50.549Z,97244.22
2022-10-03T23:52:32.831Z,97241.34
2022-10-03T23:55:05.026Z,97246.84
2022-10-03T23:57:39.198Z,97247.44
